Time;durP1;ratioP1;P1;durP2;ratioP2;P2;SDS_P1;SDS_P2;PMS_P1;PMS_P2;Temp;Humidity;BMP_temperature;BMP_pressure;BME280_temperature;BME280_humidity;BME280_pressure;Samples;Min_cycle;Max_cycle;Signal;HPM_P1;HPM_P2
2022/11/10 00:02:17;;;;;;;38.10;20.02;;;;;;;5.42;89.85;101130.08;1753868;80;21448;-61
2022/11/10 00:05:05;;;;;;;37.60;20.88;;;;;;;5.38;89.90;101120.00;1754031;82;20988;-61
2022/11/10 00:07:53;;;;;;;38.20;19.65;;;;;;;5.37;89.90;101124.22;1719616;83;21006;-64
2022/11/10 00:10:57;;;;;;;54.73;27.70;;;;;;;5.36;89.91;101121.16;1719343;83;21497;-62
2022/11/10 00:17:03;;;;;;;51.45;25.50;;;;;;;5.37;89.91;101113.36;1719447;83;20995;-62
2022/11/10 00:19:51;;;;;;;43.33;21.25;;;;;;;5.35;89.95;101114.86;1719241;83;21018;-62
2022/11/10 00:22:41;;;;;;;39.53;20.48;;;;;;;5.34;89.88;101117.72;1719353;82;20991;-61
2022/11/10 00:25:30;;;;;;;38.08;19.25;;;;;;;5.32;89.86;101117.02;1719528;82;21081;-61
2022/11/10 00:28:18;;;;;;;38.28;21.23;;;;;;;5.31;89.92;101108.00;1696486;83;21019;-62
2022/11/10 00:31:07;;;;;;;37.45;20.65;;;;;;;5.32;89.95;101114.30;1719624;83;20975;-61
2022/11/10 00:33:55;;;;;;;38.90;19.42;;;;;;;5.29;89.95;101110.52;1719209;83;21077;-62
2022/11/10 00:36:43;;;;;;;35.92;18.95;;;;;;;5.25;89.95;101105.88;1719548;83;21061;-61
2022/11/10 00:39:30;;;;;;;37.60;19.70;;;;;;;5.24;89.97;101101.44;1719537;83;21003;-62
2022/11/10 00:42:17;;;;;;;36.30;20.02;;;;;;;5.24;89.90;101097.86;1719501;83;21003;-60
2022/11/10 00:45:06;;;;;;;48.48;27.07;;;;;;;5.22;89.95;101095.80;1719778;83;21046;-61
2022/11/10 00:47:54;;;;;;;35.90;20.35;;;;;;;5.21;89.96;101096.30;1719576;83;21015;-61
2022/11/10 00:50:42;;;;;;;40.28;21.70;;;;;;;5.17;89.94;101092.62;1719224;82;21065;-61
2022/11/10 00:53:31;;;;;;;42.00;19.87;;;;;;;5.17;90.03;101089.41;1696437;83;21019;-61
2022/11/10 00:56:18;;;;;;;40.73;20.97;;;;;;;5.17;90.04;101089.41;1719707;83;21030;-63
2022/11/10 00:59:06;;;;;;;38.75;20.02;;;;;;;5.16;90.04;101092.27;1719352;83;21085;-63
2022/11/10 01:01:55;;;;;;;39.00;19.65;;;;;;;5.13;90.16;101087.13;1657414;86;21064;-62
2022/11/10 01:04:43;;;;;;;40.80;19.00;;;;;;;5.13;90.32;101083.92;1657588;86;21040;-64
2022/11/10 01:07:31;;;;;;;33.10;18.92;;;;;;;5.14;90.41;101088.34;1691076;84;21080;-62
2022/11/10 01:10:19;;;;;;;38.60;19.35;;;;;;;5.17;90.45;101083.98;1655829;86;21079;-61
2022/11/10 01:13:06;;;;;;;34.85;19.23;;;;;;;5.17;90.42;101079.91;1648489;86;21072;-62
2022/11/10 01:15:53;;;;;;;35.90;19.35;;;;;;;5.14;90.36;101074.77;1648374;87;21083;-60
2022/11/10 01:18:42;;;;;;;35.17;17.98;;;;;;;5.13;90.55;101066.77;1648394;87;21075;-61
2022/11/10 01:21:30;;;;;;;33.23;17.07;;;;;;;5.13;90.44;101072.19;1709773;84;21037;-63
2022/11/10 01:24:20;;;;;;;34.03;18.75;;;;;;;5.13;90.54;101073.05;1717660;83;21582;-62
2022/11/10 01:27:08;;;;;;;38.00;18.60;;;;;;;5.12;90.54;101069.98;1754066;82;20977;-61
2022/11/10 01:29:55;;;;;;;34.67;17.00;;;;;;;5.12;90.65;101063.19;1754162;82;21035;-61
2022/11/10 01:32:45;;;;;;;35.17;18.23;;;;;;;5.14;90.73;101056.25;1753929;81;21424;-62
2022/11/10 01:35:34;;;;;;;;;;;;;;;5.15;90.69;101063.40;1756632;82;20992;-61
2022/11/10 01:38:25;;;;;;;35.95;17.55;;;;;;;5.13;90.61;101066.26;1753803;81;20453;-62
2022/11/10 01:41:13;;;;;;;33.65;17.02;;;;;;;5.10;90.67;101063.84;1753831;82;20972;-60
2022/11/10 01:44:17;;;;;;;35.05;17.92;;;;;;;5.12;90.76;101067.27;1753812;80;21451;-62
2022/11/10 01:47:04;;;;;;;34.33;16.70;;;;;;;5.12;90.85;101072.70;1753786;82;21051;-62
2022/11/10 01:49:53;;;;;;;34.95;16.05;;;;;;;5.15;90.86;101075.62;1753935;82;21015;-61
2022/11/10 01:52:43;;;;;;;31.65;16.50;;;;;;;5.15;90.76;101075.13;1753774;82;21521;-62
2022/11/10 01:55:33;;;;;;;33.60;17.30;;;;;;;5.16;90.82;101075.97;1753983;80;20980;-61
2022/11/10 01:58:25;;;;;;;34.43;17.82;;;;;;;5.16;90.88;101076.83;1753931;82;20992;-62
2022/11/10 02:01:13;;;;;;;31.15;15.93;;;;;;;5.16;90.86;101073.26;1754042;82;21053;-62
2022/11/10 02:04:07;;;;;;;32.75;16.23;;;;;;;5.14;90.90;101069.33;1754110;82;21012;-62
2022/11/10 02:06:54;;;;;;;33.00;16.37;;;;;;;5.16;90.89;101068.69;1738635;82;21052;-61
2022/11/10 02:09:42;;;;;;;31.42;16.73;;;;;;;5.17;90.99;101078.55;1753909;82;21012;-63
2022/11/10 02:12:36;;;;;;;29.87;15.68;;;;;;;5.18;91.00;101075.33;1753880;82;21498;-61
2022/11/10 02:15:23;;;;;;;30.17;15.55;;;;;;;5.19;91.16;101078.40;1753971;82;21024;-62
2022/11/10 02:18:13;;;;;;;29.37;14.73;;;;;;;5.22;91.25;101074.92;1738309;82;21060;-61
2022/11/10 02:21:05;;;;;;;28.47;15.38;;;;;;;5.25;91.36;101069.70;1753940;82;21059;-61
2022/11/10 02:23:53;;;;;;;31.55;15.35;;;;;;;5.25;91.20;101078.70;1753756;82;21132;-62
2022/11/10 02:26:48;;;;;;;29.10;15.48;;;;;;;5.25;91.15;101081.42;1753921;82;21039;-62
2022/11/10 02:29:36;;;;;;;30.02;15.23;;;;;;;5.23;91.08;101089.36;1753822;82;21440;-62
2022/11/10 02:32:24;;;;;;;30.43;13.88;;;;;;;5.21;90.90;101076.42;1754155;82;21011;-62
2022/11/10 02:35:14;;;;;;;28.47;15.15;;;;;;;5.18;90.74;101079.41;1753888;82;20993;-59
2022/11/10 02:38:01;;;;;;;29.18;15.28;;;;;;;5.18;90.76;101087.05;1753965;82;21018;-62
2022/11/10 02:40:50;;;;;;;31.68;15.85;;;;;;;5.13;90.62;101082.56;1753893;82;21070;-62
2022/11/10 02:43:39;;;;;;;32.00;15.60;;;;;;;5.10;90.67;101086.92;1753797;82;21505;-61
2022/11/10 02:46:27;;;;;;;28.60;14.33;;;;;;;5.06;90.82;101085.00;1753754;82;20991;-62
2022/11/10 02:49:14;;;;;;;29.60;14.57;;;;;;;5.05;90.97;101089.22;1753961;82;21020;-62
2022/11/10 02:52:02;;;;;;;;;;;;;;;5.05;90.97;101089.22;1756342;82;21413;-61
2022/11/10 02:54:50;;;;;;;28.27;14.58;;;;;;;5.06;91.09;101082.28;1753944;80;20474;-61
2022/11/10 02:57:40;;;;;;;29.32;14.85;;;;;;;5.04;91.16;101084.29;1753805;82;21503;-61
2022/11/10 03:00:27;;;;;;;26.62;13.78;;;;;;;5.03;91.20;101083.94;1754188;82;21008;-61
2022/11/10 03:03:15;;;;;;;28.98;14.73;;;;;;;5.05;91.32;101083.29;1754228;82;21036;-62
2022/11/10 03:06:02;;;;;;;27.15;13.90;;;;;;;5.07;91.27;101081.28;1754202;82;21067;-61
2022/11/10 03:08:51;;;;;;;28.55;14.73;;;;;;;5.07;91.45;101081.78;1719339;83;20994;-62
2022/11/10 03:11:38;;;;;;;;;;;;;;;5.11;91.69;101077.77;1722054;83;21061;-62
2022/11/10 03:14:26;;;;;;;26.05;13.18;;;;;;;5.16;91.87;101074.12;1719239;83;20235;-62
2022/11/10 03:17:14;;;;;;;27.13;13.48;;;;;;;5.22;92.11;101076.28;1719605;83;21034;-60
2022/11/10 03:20:03;;;;;;;27.75;14.33;;;;;;;5.28;92.27;101071.62;1719571;82;21006;-61
2022/11/10 03:22:51;;;;;;;28.20;13.88;;;;;;;5.33;92.44;101072.53;1719523;83;20967;-61
2022/11/10 03:25:39;;;;;;;;;;;;;;;5.36;92.56;101069.52;1722093;83;21069;-62
2022/11/10 03:28:27;;;;;;;23.07;12.28;;;;;;;5.43;92.62;101066.56;1719564;83;20153;-61
2022/11/10 03:31:15;;;;;;;26.02;12.78;;;;;;;5.47;92.66;101066.63;1719532;83;21062;-61
2022/11/10 03:34:02;;;;;;;25.35;13.45;;;;;;;5.53;92.73;101062.45;1719592;83;20979;-62
2022/11/10 03:36:49;;;;;;;24.32;12.70;;;;;;;5.56;92.83;101064.88;1719427;83;21053;-62
2022/11/10 03:39:38;;;;;;;25.32;12.95;;;;;;;5.58;92.87;101051.98;1719778;83;21030;-63
2022/11/10 03:42:27;;;;;;;29.20;13.20;;;;;;;5.65;92.84;101057.18;1719376;83;21046;-61
2022/11/10 03:45:15;;;;;;;26.60;12.18;;;;;;;5.67;92.73;101051.94;1725131;82;21011;-61
2022/11/10 03:48:04;;;;;;;23.05;12.85;;;;;;;5.69;92.73;101052.65;1737821;82;21485;-62
2022/11/10 03:50:52;;;;;;;26.00;13.15;;;;;;;5.72;92.75;101055.57;1736613;82;21014;-61
2022/11/10 03:53:41;;;;;;;24.70;12.73;;;;;;;5.73;92.74;101048.62;1671214;84;21505;-62
2022/11/10 03:56:28;;;;;;;;;;;;;;;5.76;92.73;101046.11;1673813;86;21101;-60
2022/11/10 03:59:16;;;;;;;23.73;11.95;;;;;;;5.79;92.67;101047.16;1671670;86;20159;-61
2022/11/10 04:02:04;;;;;;;25.05;13.08;;;;;;;5.79;92.67;101044.45;1671485;86;21027;-60
2022/11/10 04:11:05;;;;;;;26.60;12.15;;;;;;;5.90;92.63;101039.38;1716894;81;21050;-62
2022/11/10 04:17:00;;;;;;;24.72;12.88;;;;;;;5.92;92.54;101041.44;1769402;81;20258;-61
2022/11/10 04:19:47;;;;;;;19.17;9.58;;;;;;;5.93;92.55;101045.36;1769652;81;21006;-62
2022/11/10 04:26:27;;;;;;;24.90;12.43;;;;;;;5.98;92.49;101051.20;1769671;81;20991;-61
2022/11/10 04:28:32;;;;;;;24.52;12.82;;;;;;;6.02;92.45;101053.97;1769589;81;21114;-62
2022/11/10 04:31:21;;;;;;;27.35;13.20;;;;;;;6.02;92.30;101051.25;1769391;80;21042;-63
2022/11/10 04:34:12;;;;;;;24.60;13.20;;;;;;;6.02;92.29;101052.61;1769577;81;21046;-61
2022/11/10 04:36:59;;;;;;;24.12;12.85;;;;;;;6.04;92.27;101047.02;1769593;80;21023;-61
2022/11/10 04:39:47;;;;;;;24.70;11.45;;;;;;;6.07;92.23;101042.62;1769422;80;21043;-61
2022/11/10 04:42:35;;;;;;;;;;;;;;;6.11;92.12;101043.18;1772261;80;21002;-62
2022/11/10 04:45:22;;;;;;;26.37;12.85;;;;;;;6.10;92.05;101046.41;1769618;81;20508;-63
2022/11/10 04:48:10;;;;;;;27.67;13.22;;;;;;;6.08;92.07;101050.28;1769365;80;21063;-61
2022/11/10 04:51:06;;;;;;;22.70;12.28;;;;;;;6.08;92.07;101044.84;1769888;80;20987;-62
2022/11/10 04:53:54;;;;;;;25.62;12.33;;;;;;;6.08;92.07;101051.64;1769449;81;21011;-64
2022/11/10 04:56:41;;;;;;;23.02;12.30;;;;;;;6.12;92.05;101055.77;1769496;81;21070;-64
2022/11/10 04:59:30;;;;;;;24.27;13.10;;;;;;;6.13;92.03;101047.96;1769494;81;21038;-62
2022/11/10 05:02:17;;;;;;;25.08;13.62;;;;;;;6.15;92.00;101056.32;1769485;81;21070;-62
2022/11/10 05:05:07;;;;;;;22.35;11.00;;;;;;;6.16;92.00;101052.59;1769789;81;21015;-62
2022/11/10 05:07:56;;;;;;;29.67;12.40;;;;;;;6.18;91.98;101059.23;1676277;85;21506;-62
2022/11/10 05:10:46;;;;;;;22.70;11.73;;;;;;;6.20;91.94;101055.86;1673713;86;21650;-62
2022/11/10 05:13:35;;;;;;;26.77;13.95;;;;;;;6.21;91.88;101068.45;1673879;86;21079;-62
2022/11/10 05:16:22;;;;;;;;;;;;;;;6.22;91.94;101066.95;1676281;86;21088;-61
2022/11/10 05:19:10;;;;;;;24.95;13.13;;;;;;;6.22;91.92;101079.70;1673772;85;20215;-64
2022/11/10 05:21:58;;;;;;;25.00;12.25;;;;;;;6.24;91.94;101081.25;1674008;86;21041;-62
2022/11/10 05:24:45;;;;;;;;;;;;;;;6.22;91.90;101077.83;1676357;86;21071;-61
2022/11/10 05:27:33;;;;;;;25.08;11.93;;;;;;;6.24;91.93;101073.09;1762352;81;20478;-61
2022/11/10 05:30:21;;;;;;;25.60;13.03;;;;;;;6.24;92.00;101078.53;1762733;80;21467;-61
2022/11/10 05:33:10;;;;;;;22.65;12.47;;;;;;;6.26;92.03;101075.16;1762643;81;21078;-62
2022/11/10 05:35:58;;;;;;;25.62;12.07;;;;;;;6.28;92.04;101085.38;1762232;81;21027;-63
2022/11/10 05:38:47;;;;;;;24.15;12.75;;;;;;;6.30;92.03;101077.92;1701879;84;21492;-61
2022/11/10 05:41:35;;;;;;;22.50;12.58;;;;;;;6.33;92.04;101089.86;1701804;84;21032;-63
2022/11/10 05:44:23;;;;;;;24.82;12.07;;;;;;;6.36;92.01;101086.83;1701844;84;21035;-61
2022/11/10 05:47:11;;;;;;;24.23;12.40;;;;;;;6.37;91.99;101090.41;1701930;84;21059;-62
2022/11/10 05:49:59;;;;;;;24.32;12.25;;;;;;;6.39;91.95;101094.33;1702204;84;21024;-62
2022/11/10 05:52:51;;;;;;;25.88;12.45;;;;;;;6.41;91.95;101105.92;1701711;84;21067;-60
2022/11/10 05:55:39;;;;;;;26.87;13.05;;;;;;;6.44;91.90;101102.89;1702029;84;21107;-63
2022/11/10 05:58:26;;;;;;;24.75;12.90;;;;;;;6.44;91.91;101109.20;1701963;84;21108;-62
2022/11/10 06:01:14;;;;;;;28.25;12.68;;;;;;;6.46;91.90;101118.57;1702196;84;21115;-61
2022/11/10 06:04:02;;;;;;;26.25;11.78;;;;;;;6.47;91.87;101108.89;1747194;80;21053;-61
2022/11/10 06:06:50;;;;;;;23.67;12.45;;;;;;;6.53;91.86;101111.53;1762363;81;21711;-63
2022/11/10 06:09:38;;;;;;;24.77;12.78;;;;;;;6.57;91.80;101110.22;1770046;81;21042;-62
2022/11/10 06:12:31;;;;;;;25.15;12.58;;;;;;;6.60;91.72;101115.34;1770202;81;21513;-63
2022/11/10 06:15:16;;;;;;;23.05;12.43;;;;;;;6.61;91.67;101114.34;1770334;80;21062;-61
2022/11/10 06:18:05;;;;;;;23.35;12.10;;;;;;;6.63;91.67;101119.98;1770269;80;20983;-60
2022/11/10 06:20:53;;;;;;;24.92;12.23;;;;;;;6.68;91.60;101116.80;1770490;80;21027;-63
2022/11/10 06:23:42;;;;;;;21.80;13.00;;;;;;;6.71;91.56;101128.73;1770183;81;21042;-61
2022/11/10 06:26:30;;;;;;;23.80;13.05;;;;;;;6.76;91.62;101130.49;1770176;81;21230;-61
2022/11/10 06:29:19;;;;;;;26.73;12.00;;;;;;;6.80;91.57;101131.89;1770717;81;21043;-62
2022/11/10 06:32:10;;;;;;;21.87;11.43;;;;;;;6.83;91.45;101134.81;1770321;80;20992;-61
2022/11/10 06:34:58;;;;;;;23.20;12.47;;;;;;;6.84;91.34;101136.02;1770346;81;21007;-65
2022/11/10 06:38:05;;;;;;;25.37;12.88;;;;;;;6.86;91.30;101131.77;1770175;80;21102;-61
2022/11/10 06:40:55;;;;;;;26.95;13.43;;;;;;;6.88;91.35;101133.84;1770176;80;21463;-62
2022/11/10 06:43:43;;;;;;;24.27;12.63;;;;;;;6.93;91.40;101137.80;1770306;81;21002;-61
2022/11/10 06:46:31;;;;;;;28.02;12.40;;;;;;;6.96;91.28;101134.77;1770299;79;21058;-62
2022/11/10 06:49:21;;;;;;;29.18;13.18;;;;;;;7.02;91.20;101133.79;1770291;81;20991;-62
2022/11/10 06:52:08;;;;;;;19.95;10.38;;;;;;;7.05;91.13;101133.48;1770380;81;21031;-62
2022/11/10 06:54:58;;;;;;;24.95;12.47;;;;;;;7.08;91.03;101131.80;1770485;80;21039;-60
2022/11/10 06:57:46;;;;;;;21.48;11.65;;;;;;;7.10;90.92;101132.50;1770112;81;21038;-62
2022/11/10 07:00:35;;;;;;;21.60;10.85;;;;;;;7.11;90.83;101135.06;1770154;81;21062;-62
2022/11/10 07:03:23;;;;;;;25.48;11.85;;;;;;;7.13;90.73;101131.67;1770586;80;20987;-61
2022/11/10 07:06:11;;;;;;;20.68;11.20;;;;;;;7.13;90.66;101123.50;1770384;81;21035;-62
2022/11/10 07:08:59;;;;;;;29.02;14.98;;;;;;;7.13;90.65;101127.59;1764200;80;21050;-62
2022/11/10 07:11:49;;;;;;;20.08;11.95;;;;;;;7.14;90.66;101129.80;1759287;81;21055;-63
2022/11/10 07:14:37;;;;;;;22.52;11.33;;;;;;;7.19;90.68;101135.67;1759333;80;21023;-62
2022/11/10 07:17:24;;;;;;;18.02;10.60;;;;;;;7.21;90.57;101134.50;1743365;81;21067;-62
2022/11/10 07:20:12;;;;;;;22.05;11.90;;;;;;;7.23;90.54;101131.62;1759183;80;21035;-63
2022/11/10 07:23:02;;;;;;;24.63;12.13;;;;;;;7.23;90.50;101131.11;1759232;80;21112;-63
2022/11/10 07:25:49;;;;;;;21.62;11.57;;;;;;;7.24;90.51;101137.42;1759456;80;21050;-62
2022/11/10 07:28:38;;;;;;;22.07;10.82;;;;;;;7.25;90.52;101138.63;1759133;81;21527;-61
2022/11/10 07:31:27;;;;;;;21.77;11.45;;;;;;;7.28;90.50;101132.86;1743763;81;21046;-63
2022/11/10 07:34:15;;;;;;;22.93;11.78;;;;;;;7.34;90.55;101136.81;1759347;80;21015;-62
2022/11/10 07:37:02;;;;;;;26.02;12.45;;;;;;;7.38;90.49;101131.91;1759381;81;21518;-64
2022/11/10 07:39:50;;;;;;;22.50;11.20;;;;;;;7.41;90.46;101134.31;1759259;80;21104;-63
2022/11/10 07:42:40;;;;;;;21.57;11.48;;;;;;;7.44;90.37;101136.72;1759324;81;21031;-63
2022/11/10 07:45:27;;;;;;;25.10;12.18;;;;;;;7.46;90.24;101135.55;1759618;81;21043;-62
2022/11/10 07:48:15;;;;;;;22.52;12.05;;;;;;;7.50;90.30;101134.71;1759229;80;21459;-62
2022/11/10 07:51:03;;;;;;;;;;;;;;;7.55;90.33;101138.67;1762010;81;21032;-60
2022/11/10 07:53:51;;;;;;;24.37;11.03;;;;;;;7.60;90.29;101143.14;1759662;81;20180;-64
2022/11/10 07:56:38;;;;;;;22.10;10.95;;;;;;;7.62;90.17;101142.47;1758796;81;21085;-61
2022/11/10 07:59:25;;;;;;;21.80;11.63;;;;;;;7.67;90.13;101140.62;1753108;81;21054;-62
2022/11/10 08:02:12;;;;;;;20.92;10.32;;;;;;;7.74;90.05;101138.11;1751400;81;21378;-67
2022/11/10 08:04:59;;;;;;;24.30;11.38;;;;;;;7.79;89.97;101136.60;1759316;81;21023;-61
2022/11/10 08:07:49;;;;;;;20.62;11.20;;;;;;;7.84;89.90;101137.52;1759047;80;21031;-62
2022/11/10 08:10:37;;;;;;;17.30;10.38;;;;;;;7.89;89.77;101129.19;1759037;81;21066;-62
2022/11/10 08:13:25;;;;;;;17.60;9.85;;;;;;;7.95;89.65;101137.23;1759178;81;21019;-62
2022/11/10 08:16:13;;;;;;;22.65;10.80;;;;;;;8.02;89.39;101141.02;1735687;82;21055;-61
2022/11/10 08:19:01;;;;;;;21.60;10.58;;;;;;;8.05;89.22;101146.66;1736065;81;21059;-61
2022/11/10 08:21:49;;;;;;;24.67;14.58;;;;;;;8.09;89.08;101139.86;1735925;82;21032;-60
2022/11/10 08:24:37;;;;;;;22.65;10.95;;;;;;;8.11;88.94;101145.50;1735586;82;21083;-63
2022/11/10 08:27:24;;;;;;;;;;;;;;;8.16;88.89;101146.38;1738393;82;21103;-63
2022/11/10 08:30:13;;;;;;;19.00;10.03;;;;;;;8.19;88.66;101154.23;1735877;82;20217;-61
2022/11/10 08:33:01;;;;;;;19.75;10.80;;;;;;;8.20;88.44;101154.07;1735726;82;21060;-62
2022/11/10 08:35:51;;;;;;;22.02;10.88;;;;;;;8.23;88.37;101152.89;1759351;81;20980;-63
2022/11/10 08:38:40;;;;;;;22.73;9.75;;;;;;;8.25;88.30;101152.21;1759044;81;21075;-62
2022/11/10 08:41:29;;;;;;;22.65;10.95;;;;;;;8.28;88.17;101147.79;1758987;81;21027;-64
2022/11/10 08:44:16;;;;;;;;;;;;;;;8.33;88.12;101155.02;1761618;81;21043;-64
2022/11/10 08:47:07;;;;;;;23.02;11.95;;;;;;;8.37;87.98;101147.34;1759156;81;20650;-64
2022/11/10 08:49:54;;;;;;;19.48;10.90;;;;;;;8.39;87.91;101157.59;1759421;80;21047;-62
2022/11/10 08:52:45;;;;;;;19.52;10.60;;;;;;;8.41;87.71;101148.72;1756301;81;21083;-63
2022/11/10 08:55:37;;;;;;;18.25;9.90;;;;;;;8.41;87.55;101148.21;1743476;81;20990;-61
2022/11/10 08:58:26;;;;;;;21.02;11.45;;;;;;;8.42;87.56;101152.66;1743757;81;21073;-64
2022/11/10 09:01:14;;;;;;;21.10;11.25;;;;;;;8.46;87.54;101155.43;1743997;82;21006;-64
2022/11/10 09:04:03;;;;;;;20.60;10.90;;;;;;;8.50;87.78;101155.44;1743646;82;20990;-63
2022/11/10 09:06:56;;;;;;;24.32;11.70;;;;;;;8.53;87.60;101147.42;1743685;82;21021;-63
2022/11/10 09:09:42;;;;;;;18.85;10.48;;;;;;;8.55;87.47;101147.61;1748484;80;21104;-63
2022/11/10 09:12:32;;;;;;;19.07;10.30;;;;;;;8.59;87.28;101150.86;1751330;82;21077;-63
2022/11/10 09:15:19;;;;;;;20.23;10.90;;;;;;;8.61;87.15;101149.33;1751838;81;21045;-62
2022/11/10 09:18:07;;;;;;;22.15;11.05;;;;;;;8.60;87.18;101140.79;1751576;82;22060;-63
2022/11/10 09:20:57;;;;;;;20.27;10.63;;;;;;;8.63;87.16;101145.91;1669661;84;22187;-64
2022/11/10 09:23:45;;;;;;;21.97;11.20;;;;;;;8.62;86.97;101136.02;1670041;86;21086;-63
2022/11/10 09:26:39;;;;;;;23.83;12.23;;;;;;;8.64;87.05;101142.16;1669911;86;21541;-64
2022/11/10 09:29:27;;;;;;;21.27;11.57;;;;;;;8.65;87.10;101142.00;1669810;86;21312;-62
2022/11/10 09:32:15;;;;;;;22.10;11.83;;;;;;;8.70;87.11;101149.17;1670116;86;21035;-64
2022/11/10 09:35:03;;;;;;;24.23;11.15;;;;;;;8.72;86.98;101144.91;1670110;84;21119;-62
2022/11/10 09:37:52;;;;;;;22.42;10.82;;;;;;;8.72;86.84;101140.30;1669819;86;21148;-63
2022/11/10 09:41:01;;;;;;;;;;;;;;;8.73;86.77;101151.58;1672315;86;21143;-61
2022/11/10 09:44:16;;;;;;;22.77;12.50;;;;;;;8.76;86.72;101155.84;1669780;84;20211;-63
2022/11/10 09:47:15;;;;;;;24.20;12.43;;;;;;;8.73;86.78;101145.26;1751750;82;21117;-62
2022/11/10 09:50:16;;;;;;;24.47;11.28;;;;;;;8.73;86.81;101148.84;1751910;81;21477;-66
2022/11/10 09:53:04;;;;;;;25.37;11.43;;;;;;;8.73;86.88;101139.28;1766495;80;21063;-63
2022/11/10 09:56:01;;;;;;;22.07;11.70;;;;;;;8.75;87.00;101139.11;1782410;80;21012;-62
2022/11/10 09:58:50;;;;;;;22.17;11.78;;;;;;;8.75;87.16;101140.48;1782838;79;21467;-63
2022/11/10 10:01:50;;;;;;;26.10;12.03;;;;;;;8.73;87.22;101133.81;1782586;80;21052;-62
2022/11/10 10:05:17;;;;;;;20.52;11.80;;;;;;;8.72;87.37;101136.72;1782504;79;21099;-61
2022/11/10 10:08:11;;;;;;;;;;;;;;;8.73;87.47;101130.23;1784959;80;21482;-60
2022/11/10 10:11:07;;;;;;;25.48;12.73;;;;;;;8.76;87.62;101133.48;1782346;80;20569;-61
2022/11/10 10:14:14;;;;;;;22.93;11.03;;;;;;;8.79;87.73;101133.66;1782205;80;20972;-59
2022/11/10 10:17:30;;;;;;;30.77;12.53;;;;;;;8.80;87.72;101136.73;1653458;86;21091;-58
2022/11/10 10:20:34;;;;;;;25.75;11.30;;;;;;;8.77;87.84;101137.06;1653536;87;21052;-61
2022/11/10 10:23:36;;;;;;;24.43;11.63;;;;;;;8.76;87.85;101136.21;1676595;85;21051;-61
2022/11/10 10:26:30;;;;;;;25.68;11.48;;;;;;;8.76;87.99;101139.45;1653541;87;21116;-59
2022/11/10 10:29:27;;;;;;;24.77;12.50;;;;;;;8.78;88.15;101136.05;1653677;86;21032;-60
2022/11/10 10:32:21;;;;;;;26.33;13.13;;;;;;;8.77;88.24;101134.33;1653640;87;21005;-61
2022/11/10 10:35:16;;;;;;;23.22;11.33;;;;;;;8.79;88.41;101141.85;1653756;87;21068;-60
2022/11/10 10:38:04;;;;;;;24.37;12.25;;;;;;;8.79;88.44;101133.14;1653383;87;21114;-60
2022/11/10 10:40:53;;;;;;;24.85;13.25;;;;;;;8.81;88.53;101140.66;1653816;87;21137;-60
2022/11/10 10:43:47;;;;;;;22.70;12.00;;;;;;;8.81;88.52;101137.08;1653778;87;21016;-60
2022/11/10 10:46:59;;;;;;;23.73;12.43;;;;;;;8.80;88.65;101138.95;1653556;87;21142;-61
2022/11/10 10:49:51;;;;;;;29.00;12.00;;;;;;;8.81;88.76;101139.81;1653537;87;21181;-61
2022/11/10 10:52:38;;;;;;;;;;;;;;;8.78;88.90;101134.68;1655918;86;21137;-60
2022/11/10 10:55:32;;;;;;;24.47;12.37;;;;;;;8.80;89.01;101139.47;1758845;80;20462;-60
2022/11/10 10:58:52;;;;;;;27.32;13.65;;;;;;;8.77;89.19;101142.02;1751330;81;21092;-63
2022/11/10 11:01:40;;;;;;;25.37;12.85;;;;;;;8.74;89.38;101127.84;1750653;81;21076;-59
2022/11/10 11:04:34;;;;;;;25.97;12.30;;;;;;;8.73;89.56;101139.80;1735144;82;21118;-62
2022/11/10 11:07:44;;;;;;;25.52;12.30;;;;;;;8.74;89.69;101140.13;1751120;81;21030;-61
2022/11/10 11:10:53;;;;;;;22.77;12.15;;;;;;;8.76;89.79;101140.83;1653814;86;21536;-60
2022/11/10 11:14:26;;;;;;;28.27;14.03;;;;;;;8.78;89.92;101151.07;1595848;89;21119;-61
2022/11/10 11:17:20;;;;;;;31.48;13.85;;;;;;;8.79;90.07;101147.32;1596406;90;21282;-60
2022/11/10 11:20:13;;;;;;;24.60;12.58;;;;;;;8.79;90.10;101144.08;1596568;90;21110;-61
2022/11/10 11:23:15;;;;;;;27.93;13.58;;;;;;;8.81;90.06;101141.17;1596444;90;21092;-61
2022/11/10 11:26:41;;;;;;;24.05;13.48;;;;;;;8.81;89.99;101146.13;1596446;90;21173;-61
2022/11/10 11:30:02;;;;;;;26.62;13.83;;;;;;;8.82;90.02;101149.20;1563408;92;21096;-60
2022/11/10 11:33:21;;;;;;;29.52;13.75;;;;;;;8.83;90.08;101151.42;1563795;92;21275;-59
2022/11/10 11:36:29;;;;;;;31.25;13.45;;;;;;;8.81;90.08;101154.33;1563537;92;21084;-60
2022/11/10 11:39:35;;;;;;;28.80;13.80;;;;;;;8.82;90.19;101149.72;1563482;92;21527;-61
2022/11/10 11:42:32;;;;;;;24.07;13.35;;;;;;;8.79;90.08;101160.47;1563715;92;21083;-61
2022/11/10 11:45:44;;;;;;;27.37;14.40;;;;;;;8.73;90.09;101161.65;1563829;92;21084;-60
2022/11/10 11:48:54;;;;;;;24.30;12.68;;;;;;;8.73;90.54;101177.53;1563290;92;21143;-61
2022/11/10 11:52:24;;;;;;;25.30;13.15;;;;;;;8.75;90.52;101160.46;1545289;93;21194;-62
2022/11/10 11:55:54;;;;;;;31.77;14.65;;;;;;;8.74;90.27;101164.73;1544441;93;21520;-61
2022/11/10 11:59:04;;;;;;;30.30;15.65;;;;;;;8.72;90.24;101162.67;1545797;93;21124;-62
2022/11/10 12:02:12;;;;;;;28.57;14.28;;;;;;;8.69;90.30;101161.64;1545509;93;21195;-62
2022/11/10 12:05:24;;;;;;;26.55;13.55;;;;;;;8.67;90.34;101158.22;1541427;93;21136;-61
2022/11/10 12:08:46;;;;;;;32.03;15.78;;;;;;;8.66;90.41;101153.78;1604313;86;21071;-62
2022/11/10 12:11:40;;;;;;;32.63;15.70;;;;;;;8.64;90.64;101151.73;1673530;84;21045;-61
2022/11/10 12:14:39;;;;;;;34.70;17.52;;;;;;;8.62;90.82;101146.94;1680384;85;21063;-61
2022/11/10 12:17:54;;;;;;;30.97;14.45;;;;;;;8.60;91.00;101143.01;1661875;85;21092;-61
2022/11/10 12:21:18;;;;;;;27.45;14.43;;;;;;;8.63;91.10;101143.19;1671386;85;21080;-60
2022/11/10 12:24:30;;;;;;;32.38;15.75;;;;;;;8.63;91.16;101155.48;1681839;83;21123;-62
2022/11/10 12:27:31;;;;;;;25.17;14.93;;;;;;;8.58;91.28;101155.47;1655842;84;21159;-62
2022/11/10 12:30:20;;;;;;;26.02;13.38;;;;;;;8.61;91.45;101158.89;1715549;83;21011;-61
2022/11/10 12:33:42;;;;;;;30.25;14.60;;;;;;;8.62;91.46;101151.89;1751649;81;21466;-62
2022/11/10 12:36:32;;;;;;;27.48;13.48;;;;;;;8.62;91.49;101146.94;1751432;82;21446;-61
2022/11/10 12:39:37;;;;;;;28.45;13.32;;;;;;;8.61;91.58;101149.33;1751690;81;21110;-61
2022/11/10 12:42:29;;;;;;;25.45;12.55;;;;;;;8.62;91.55;101149.67;1749943;81;20996;-63
2022/11/10 12:45:27;;;;;;;23.27;11.85;;;;;;;8.61;91.50;101154.79;1751501;81;20980;-61
2022/11/10 12:48:15;;;;;;;25.75;13.18;;;;;;;8.61;91.60;101159.74;1751451;81;21472;-61
2022/11/10 12:51:13;;;;;;;25.32;12.43;;;;;;;8.61;91.52;101161.62;1751621;82;21043;-62
2022/11/10 12:54:04;;;;;;;;;;;;;;;8.59;91.54;101154.95;1754230;81;21471;-61
2022/11/10 12:57:03;;;;;;;22.32;11.73;;;;;;;8.61;91.66;101156.16;1751459;82;20148;-61
2022/11/10 13:00:07;;;;;;;23.87;12.35;;;;;;;8.62;91.84;101149.16;1751555;81;21079;-63
2022/11/10 13:03:04;;;;;;;26.15;12.45;;;;;;;8.63;91.89;101150.88;1752648;80;21036;-62
2022/11/10 13:06:26;;;;;;;22.80;12.20;;;;;;;8.66;91.99;101160.61;1782160;80;21024;-60
2022/11/10 13:09:30;;;;;;;23.87;11.28;;;;;;;8.66;91.94;101156.52;1782372;80;21063;-61
2022/11/10 13:12:22;;;;;;;21.80;10.32;;;;;;;8.65;91.96;101155.66;1782373;80;21000;-61
2022/11/10 13:15:38;;;;;;;21.15;11.40;;;;;;;8.64;91.98;101151.21;1782774;80;21010;-60
2022/11/10 13:18:38;;;;;;;25.05;12.25;;;;;;;8.63;92.10;101156.33;1782307;79;21016;-61
2022/11/10 13:21:57;;;;;;;19.57;11.05;;;;;;;8.60;92.35;101159.91;1782439;80;21055;-61
2022/11/10 13:24:53;;;;;;;20.40;10.48;;;;;;;8.57;92.47;101156.48;1782282;80;21071;-62
2022/11/10 13:27:49;;;;;;;22.73;11.40;;;;;;;8.56;92.64;101156.14;1766231;80;21061;-63
2022/11/10 13:30:44;;;;;;;21.25;11.88;;;;;;;8.59;92.83;101163.15;1782310;80;21520;-64
2022/11/10 13:33:38;;;;;;;24.55;11.90;;;;;;;8.57;92.99;101172.87;1782477;80;21466;-64
2022/11/10 13:36:48;;;;;;;22.85;11.83;;;;;;;8.57;93.19;101182.44;1782513;80;21452;-63